Time;durP1;ratioP1;P1;durP2;ratioP2;P2;SDS_P1;SDS_P2;PMS_P1;PMS_P2;Temp;Humidity;BMP_temperature;BMP_pressure;BME280_temperature;BME280_humidity;BME280_pressure;Samples;Min_cycle;Max_cycle;Signal;HPM_P1;HPM_P2
2022/03/16 00:01:46;;;;;;;;;;;12.40;99.90;;;;;;5034888;28;20353;-76
2022/03/16 00:04:12;;;;;;;;;;;12.50;99.90;;;;;;5034799;28;19966;-76
2022/03/16 00:06:37;;;;;;;;;;;12.70;99.90;;;;;;5034860;28;20392;-76
2022/03/16 00:09:04;;;;;;;;;;;12.80;99.90;;;;;;5034803;28;19915;-76
2022/03/16 00:11:29;;;;;;;;;;;12.80;99.90;;;;;;5034740;28;19920;-76
2022/03/16 00:13:55;;;;;;;;;;;12.80;99.90;;;;;;5034678;28;19909;-76
2022/03/16 00:16:20;;;;;;;;;;;12.80;99.90;;;;;;5034568;28;19952;-76
2022/03/16 00:18:46;;;;;;;;;;;12.70;99.90;;;;;;5033268;28;20319;-76
2022/03/16 00:21:12;;;;;;;;;;;12.60;99.90;;;;;;5034521;28;19915;-76
2022/03/16 00:23:38;;;;;;;;;;;12.70;99.90;;;;;;5034542;28;19917;-76
2022/03/16 00:26:03;;;;;;;;;;;12.70;99.90;;;;;;5034426;28;19909;-76
2022/03/16 00:28:29;;;;;;;;;;;12.60;99.90;;;;;;5033054;28;19978;-76
2022/03/16 00:30:55;;;;;;;;;;;12.60;99.90;;;;;;5033052;28;20428;-76
2022/03/16 00:33:21;;;;;;;;;;;12.60;99.90;;;;;;5034293;28;19909;-76
2022/03/16 00:35:46;;;;;;;;;;;12.50;99.90;;;;;;5034326;28;19916;-76
2022/03/16 00:38:14;;;;;;;;;;;12.30;99.90;;;;;;5033963;28;20010;-76
2022/03/16 00:40:40;;;;;;;;;;;12.20;99.90;;;;;;5034609;28;19959;-76
2022/03/16 00:43:05;;;;;;;;;;;12.30;99.90;;;;;;5034179;28;20066;-76
2022/03/16 00:45:31;;;;;;;;;;;12.30;99.90;;;;;;5034076;28;19909;-76
2022/03/16 00:47:56;;;;;;;;;;;12.40;99.90;;;;;;5032679;28;19917;-76
2022/03/16 00:50:22;;;;;;;;;;;12.10;99.90;;;;;;5034228;28;19913;-76
2022/03/16 00:52:48;;;;;;;;;;;12.00;99.90;;;;;;5033476;28;19916;-76
2022/03/16 00:55:13;;;;;;;;;;;11.90;99.90;;;;;;5033932;28;19917;-76
2022/03/16 00:57:39;;;;;;;;;;;12.00;99.90;;;;;;5032323;28;20283;-76
2022/03/16 01:00:05;;;;;;;;;;;11.80;99.90;;;;;;5032567;28;19915;-76
2022/03/16 01:02:31;;;;;;;;;;;11.70;99.90;;;;;;5034067;28;20420;-76
2022/03/16 01:04:57;;;;;;;;;;;11.60;99.90;;;;;;5033809;28;20063;-76
2022/03/16 01:07:22;;;;;;;;;;;11.70;99.90;;;;;;5033741;28;19913;-76
2022/03/16 01:09:48;;;;;;;;;;;11.60;99.90;;;;;;5033743;28;19910;-76
2022/03/16 01:12:13;;;;;;;;;;;11.70;99.90;;;;;;5033734;28;20259;-76
2022/03/16 01:14:39;;;;;;;;;;;12.00;99.90;;;;;;5032413;28;19909;-76
2022/03/16 01:17:05;;;;;;;;;;;12.00;99.90;;;;;;5033619;28;19916;-76
2022/03/16 01:19:31;;;;;;;;;;;12.00;99.90;;;;;;5033696;28;19948;-76
2022/03/16 01:21:57;;;;;;;;;;;12.10;99.90;;;;;;5033652;28;20297;-76
2022/03/16 01:24:22;;;;;;;;;;;12.10;99.90;;;;;;5032351;28;19909;-76
2022/03/16 01:26:48;;;;;;;;;;;12.10;99.90;;;;;;5033500;28;19909;-76
2022/03/16 01:29:13;;;;;;;;;;;12.10;99.90;;;;;;5033582;28;19941;-76
2022/03/16 01:31:40;;;;;;;;;;;12.20;99.90;;;;;;5033563;28;20377;-76
2022/03/16 01:34:05;;;;;;;;;;;12.30;99.90;;;;;;5032290;28;19916;-76
2022/03/16 01:36:31;;;;;;;;;;;12.20;99.90;;;;;;5033636;28;19909;-76
2022/03/16 01:38:56;;;;;;;;;;;12.00;99.90;;;;;;5033395;28;20306;-76
2022/03/16 01:41:22;;;;;;;;;;;12.00;99.90;;;;;;5032102;28;20004;-76
2022/03/16 01:43:52;;;;;;;;;;;12.00;99.90;;;;;;5032154;28;20004;-76
2022/03/16 01:46:20;;;;;;;;;;;11.90;99.90;;;;;;5033429;28;19999;-76
2022/03/16 01:48:46;;;;;;;;;;;11.90;99.90;;;;;;5032088;28;19962;-76
2022/03/16 01:51:12;;;;;;;;;;;11.90;99.90;;;;;;5033681;28;19913;-76
2022/03/16 01:53:40;;;;;;;;;;;12.00;99.90;;;;;;5033480;28;19916;-76
2022/03/16 01:56:05;;;;;;;;;;;11.90;99.90;;;;;;5033452;28;20047;-76
2022/03/16 01:58:31;;;;;;;;;;;12.00;99.90;;;;;;5033372;28;19975;-76
2022/03/16 02:00:56;;;;;;;;;;;11.90;99.90;;;;;;5033299;28;20484;-76
2022/03/16 02:03:22;;;;;;;;;;;11.80;99.90;;;;;;5033282;28;19909;-76
2022/03/16 02:05:48;;;;;;;;;;;11.60;99.90;;;;;;5036267;28;19916;-76
2022/03/16 02:08:14;;;;;;;;;;;11.80;99.90;;;;;;5037238;28;20004;-76
2022/03/16 02:10:40;;;;;;;;;;;11.80;99.90;;;;;;5037124;28;20365;-76
2022/03/16 02:13:07;;;;;;;;;;;12.00;99.90;;;;;;5036948;28;20394;-76
2022/03/16 02:15:33;;;;;;;;;;;12.00;99.90;;;;;;5036905;28;19913;-76
2022/03/16 02:17:59;;;;;;;;;;;12.00;99.90;;;;;;5037187;28;19910;-76
2022/03/16 02:20:27;;;;;;;;;;;12.10;99.90;;;;;;5036844;28;19956;-76
2022/03/16 02:22:53;;;;;;;;;;;12.00;99.90;;;;;;5036731;28;19916;-76
2022/03/16 02:25:19;;;;;;;;;;;12.00;99.90;;;;;;5036757;28;20377;-76
2022/03/16 02:27:44;;;;;;;;;;;11.90;99.90;;;;;;5037050;28;19913;-76
2022/03/16 02:30:10;;;;;;;;;;;11.70;99.90;;;;;;5036670;28;20406;-76
2022/03/16 02:32:36;;;;;;;;;;;11.40;99.90;;;;;;5035253;28;19916;-76
2022/03/16 02:35:02;;;;;;;;;;;11.30;99.90;;;;;;5036552;28;19909;-76
2022/03/16 02:37:27;;;;;;;;;;;11.30;99.90;;;;;;5036267;28;19956;-77
2022/03/16 02:39:54;;;;;;;;;;;11.20;99.90;;;;;;5034901;28;19913;-76
2022/03/16 02:42:19;;;;;;;;;;;11.30;99.90;;;;;;5035090;28;19909;-76
2022/03/16 02:44:45;;;;;;;;;;;11.40;99.90;;;;;;5036454;28;19915;-76
2022/03/16 02:47:10;;;;;;;;;;;11.30;99.90;;;;;;5036417;28;19917;-76
2022/03/16 02:49:36;;;;;;;;;;;11.20;99.90;;;;;;5036325;28;19916;-76
2022/03/16 02:52:05;;;;;;;;;;;11.10;99.90;;;;;;5036251;28;19959;-76
2022/03/16 02:54:31;;;;;;;;;;;11.10;99.90;;;;;;5036285;28;19909;-76
2022/03/16 02:56:57;;;;;;;;;;;11.10;99.90;;;;;;5036138;28;19967;-76
2022/03/16 02:59:22;;;;;;;;;;;11.30;99.90;;;;;;5036117;28;19997;-76
2022/03/16 03:01:48;;;;;;;;;;;11.30;99.90;;;;;;5036041;28;19917;-76
2022/03/16 03:04:14;;;;;;;;;;;11.30;99.90;;;;;;5036008;28;20285;-76
2022/03/16 03:06:39;;;;;;;;;;;11.30;99.90;;;;;;5036030;28;19916;-76
2022/03/16 03:09:05;;;;;;;;;;;11.30;99.90;;;;;;5035999;28;20293;-76
2022/03/16 03:11:30;;;;;;;;;;;11.30;99.90;;;;;;5035850;28;19909;-76
2022/03/16 03:13:56;;;;;;;;;;;11.30;99.90;;;;;;5035835;28;19916;-76
2022/03/16 03:16:22;;;;;;;;;;;11.30;99.90;;;;;;5035798;28;19909;-76
2022/03/16 03:18:47;;;;;;;;;;;11.30;99.90;;;;;;5035798;28;19920;-76
2022/03/16 03:21:13;;;;;;;;;;;11.30;99.90;;;;;;5035824;28;20393;-76
2022/03/16 03:23:38;;;;;;;;;;;11.40;99.90;;;;;;5034381;28;19909;-76
2022/03/16 03:26:04;;;;;;;;;;;11.40;99.90;;;;;;5035741;28;19967;-76
2022/03/16 03:28:29;;;;;;;;;;;11.30;99.90;;;;;;5035443;28;19917;-76
2022/03/16 03:30:55;;;;;;;;;;;11.20;99.90;;;;;;5035493;28;19916;-76
2022/03/16 03:33:21;;;;;;;;;;;11.20;99.90;;;;;;5034179;28;19952;-76
2022/03/16 03:35:48;;;;;;;;;;;11.10;99.90;;;;;;5035572;28;19916;-76
2022/03/16 03:38:14;;;;;;;;;;;11.20;99.90;;;;;;5035344;28;20405;-76
2022/03/16 03:40:40;;;;;;;;;;;11.30;99.90;;;;;;5035363;28;19916;-76
2022/03/16 03:43:05;;;;;;;;;;;11.40;99.90;;;;;;5035518;28;19913;-76
2022/03/16 03:45:31;;;;;;;;;;;11.40;99.90;;;;;;5035171;28;20370;-76
2022/03/16 03:47:57;;;;;;;;;;;11.40;99.90;;;;;;5035123;28;20406;-76
2022/03/16 03:50:23;;;;;;;;;;;11.50;99.90;;;;;;5035293;28;19960;-76
2022/03/16 03:52:49;;;;;;;;;;;11.60;99.90;;;;;;5035154;28;19941;-76
2022/03/16 03:55:15;;;;;;;;;;;11.50;99.90;;;;;;5033759;28;19940;-76
2022/03/16 03:57:40;;;;;;;;;;;11.40;99.90;;;;;;5035013;28;20369;-76
2022/03/16 04:00:06;;;;;;;;;;;11.20;99.90;;;;;;5034940;28;19909;-76
2022/03/16 04:02:32;;;;;;;;;;;11.30;99.90;;;;;;5034927;28;19917;-76
2022/03/16 04:04:57;;;;;;;;;;;11.30;99.90;;;;;;5033646;28;19914;-76
2022/03/16 04:07:23;;;;;;;;;;;11.20;99.90;;;;;;5034796;28;20373;-76
2022/03/16 04:09:50;;;;;;;;;;;11.10;99.90;;;;;;5034798;28;19915;-76
2022/03/16 04:12:17;;;;;;;;;;;11.10;99.90;;;;;;5034799;28;19910;-76
2022/03/16 04:14:42;;;;;;;;;;;11.00;99.90;;;;;;5034800;28;19909;-76
2022/03/16 04:17:08;;;;;;;;;;;10.80;99.90;;;;;;5034651;28;19958;-76
2022/03/16 04:19:34;;;;;;;;;;;10.90;99.90;;;;;;5034611;28;19931;-76
2022/03/16 04:21:59;;;;;;;;;;;11.00;99.90;;;;;;5034343;28;19909;-76
2022/03/16 04:24:25;;;;;;;;;;;10.80;99.90;;;;;;5034567;28;19909;-76
2022/03/16 04:26:50;;;;;;;;;;;10.80;99.90;;;;;;5032622;28;19909;-76
2022/03/16 04:29:16;;;;;;;;;;;10.70;99.90;;;;;;5034597;28;19916;-76
2022/03/16 04:31:42;;;;;;;;;;;10.70;99.90;;;;;;5033068;28;20378;-76
2022/03/16 04:34:07;;;;;;;;;;;10.70;99.90;;;;;;5034308;28;19913;-76
2022/03/16 04:36:33;;;;;;;;;;;10.70;99.90;;;;;;5034269;28;19964;-76
2022/03/16 04:38:59;;;;;;;;;;;10.70;99.90;;;;;;5034058;28;20012;-76
2022/03/16 04:41:24;;;;;;;;;;;10.50;99.90;;;;;;5034278;28;20385;-76
2022/03/16 04:43:50;;;;;;;;;;;10.40;99.90;;;;;;5034136;28;19996;-76
2022/03/16 04:46:15;;;;;;;;;;;10.60;99.90;;;;;;5034483;28;19958;-76
2022/03/16 04:48:41;;;;;;;;;;;10.70;99.90;;;;;;5033970;28;19914;-76
2022/03/16 04:51:06;;;;;;;;;;;10.80;99.90;;;;;;5033089;28;19909;-76
2022/03/16 04:53:32;;;;;;;;;;;10.80;99.90;;;;;;5033967;28;19909;-76
2022/03/16 04:55:58;;;;;;;;;;;10.90;99.90;;;;;;5034171;28;19913;-76
2022/03/16 04:58:23;;;;;;;;;;;10.90;99.90;;;;;;5032677;28;19998;-76
2022/03/16 05:00:49;;;;;;;;;;;11.00;99.90;;;;;;5033988;28;20386;-76
2022/03/16 05:03:14;;;;;;;;;;;11.00;99.90;;;;;;5032639;28;19945;-77
2022/03/16 05:05:40;;;;;;;;;;;11.10;99.90;;;;;;5033686;28;19909;-76
2022/03/16 05:08:06;;;;;;;;;;;11.00;99.90;;;;;;5033789;28;19920;-76
2022/03/16 05:10:31;;;;;;;;;;;11.00;99.90;;;;;;5033835;28;19960;-76
2022/03/16 05:12:57;;;;;;;;;;;11.00;99.90;;;;;;5033831;28;20408;-76
2022/03/16 05:15:22;;;;;;;;;;;11.00;99.90;;;;;;5034154;28;19940;-76
2022/03/16 05:17:48;;;;;;;;;;;10.90;99.90;;;;;;5034070;28;19948;-76
2022/03/16 05:20:14;;;;;;;;;;;10.90;99.90;;;;;;5033718;28;19963;-76
2022/03/16 05:22:41;;;;;;;;;;;10.90;99.90;;;;;;5033825;28;20362;-76
2022/03/16 05:25:06;;;;;;;;;;;10.90;99.90;;;;;;5033623;28;19916;-76
2022/03/16 05:27:32;;;;;;;;;;;11.00;99.90;;;;;;5033768;28;19913;-76
2022/03/16 05:29:57;;;;;;;;;;;11.10;99.90;;;;;;5033546;28;19913;-76
2022/03/16 05:32:23;;;;;;;;;;;11.20;99.90;;;;;;5032132;28;20389;-76
2022/03/16 05:34:49;;;;;;;;;;;11.20;99.90;;;;;;5033651;28;20373;-76
2022/03/16 05:37:14;;;;;;;;;;;11.20;99.90;;;;;;5033504;28;19909;-76
2022/03/16 05:39:40;;;;;;;;;;;11.30;99.90;;;;;;5035637;28;19921;-76
2022/03/16 05:42:05;;;;;;;;;;;11.20;99.90;;;;;;5037760;28;19952;-76
2022/03/16 05:44:31;;;;;;;;;;;11.30;99.90;;;;;;5037534;28;20366;-76
2022/03/16 05:46:57;;;;;;;;;;;11.40;99.90;;;;;;5037539;28;19916;-76
2022/03/16 05:49:25;;;;;;;;;;;11.40;99.90;;;;;;5037461;28;20275;-76
2022/03/16 05:51:51;;;;;;;;;;;11.40;99.90;;;;;;5037447;28;19909;-76
2022/03/16 05:54:16;;;;;;;;;;;11.40;99.90;;;;;;5037349;28;20405;-77
2022/03/16 05:56:42;;;;;;;;;;;11.50;99.90;;;;;;5037306;28;19909;-76
2022/03/16 05:59:08;;;;;;;;;;;11.50;99.90;;;;;;5037222;28;19920;-76
2022/03/16 06:01:33;;;;;;;;;;;11.60;99.90;;;;;;5037213;28;19910;-76
2022/03/16 06:03:59;;;;;;;;;;;11.70;99.90;;;;;;5037251;28;19963;-76
2022/03/16 06:06:26;;;;;;;;;;;11.70;99.90;;;;;;5037148;28;19909;-76
2022/03/16 06:08:52;;;;;;;;;;;11.70;99.90;;;;;;5037018;28;19913;-76
2022/03/16 06:11:18;;;;;;;;;;;11.60;99.90;;;;;;5036758;28;20416;-76
2022/03/16 06:13:43;;;;;;;;;;;11.50;99.90;;;;;;5037380;28;19909;-76
2022/03/16 06:16:09;;;;;;;;;;;11.60;99.90;;;;;;5036980;28;20277;-76
2022/03/16 06:18:34;;;;;;;;;;;11.70;99.90;;;;;;5036848;28;19909;-76
2022/03/16 06:21:00;;;;;;;;;;;11.60;99.90;;;;;;5036894;28;19997;-76
2022/03/16 06:23:25;;;;;;;;;;;11.60;99.90;;;;;;5037110;28;19909;-76
2022/03/16 06:25:51;;;;;;;;;;;11.60;99.90;;;;;;5037011;28;19909;-76
2022/03/16 06:28:17;;;;;;;;;;;11.60;99.90;;;;;;5035297;28;19990;-76
2022/03/16 06:30:42;;;;;;;;;;;11.60;99.90;;;;;;5036732;28;19917;-76
2022/03/16 06:33:08;;;;;;;;;;;11.60;99.90;;;;;;5036641;28;19913;-76
2022/03/16 06:35:34;;;;;;;;;;;11.70;99.90;;;;;;5036630;28;19909;-76
2022/03/16 06:37:59;;;;;;;;;;;11.70;99.90;;;;;;5036484;28;19971;-76
2022/03/16 06:40:25;;;;;;;;;;;11.80;99.90;;;;;;5036561;28;19999;-76
2022/03/16 06:42:50;;;;;;;;;;;11.70;99.90;;;;;;5036595;28;19909;-76
2022/03/16 06:45:16;;;;;;;;;;;11.70;99.90;;;;;;5036375;28;19909;-76
2022/03/16 06:47:42;;;;;;;;;;;11.70;99.90;;;;;;5036500;28;19912;-76
2022/03/16 06:50:08;;;;;;;;;;;11.70;99.90;;;;;;5035521;28;19913;-76
2022/03/16 06:52:34;;;;;;;;;;;11.60;99.90;;;;;;5036197;28;19984;-76
2022/03/16 06:54:59;;;;;;;;;;;11.60;99.90;;;;;;5036061;28;19986;-76
2022/03/16 06:57:25;;;;;;;;;;;11.40;99.90;;;;;;5036129;28;20285;-76
2022/03/16 06:59:50;;;;;;;;;;;11.40;99.90;;;;;;5034791;28;19909;-76
2022/03/16 07:02:17;;;;;;;;;;;11.30;99.90;;;;;;5036009;28;19916;-76
2022/03/16 07:04:42;;;;;;;;;;;11.30;99.90;;;;;;5036057;28;19960;-76
2022/03/16 07:07:08;;;;;;;;;;;11.30;99.90;;;;;;5035919;28;19917;-76
2022/03/16 07:09:34;;;;;;;;;;;11.40;99.90;;;;;;5035927;28;19968;-76
2022/03/16 07:11:59;;;;;;;;;;;11.50;99.90;;;;;;5034864;28;20278;-76
2022/03/16 07:14:31;;;;;;;;;;;11.50;99.90;;;;;;5036078;28;19996;-76
2022/03/16 07:16:57;;;;;;;;;;;11.50;99.90;;;;;;5035912;28;20373;-76
2022/03/16 07:19:23;;;;;;;;;;;11.40;99.90;;;;;;5035718;28;19909;-76
2022/03/16 07:21:48;;;;;;;;;;;11.50;99.90;;;;;;5035932;28;20389;-76
2022/03/16 07:24:14;;;;;;;;;;;11.60;99.90;;;;;;5035934;28;20000;-76
2022/03/16 07:26:40;;;;;;;;;;;11.60;99.90;;;;;;5035752;28;20393;-76
2022/03/16 07:29:06;;;;;;;;;;;11.60;99.90;;;;;;5035590;28;19920;-76
2022/03/16 07:31:31;;;;;;;;;;;11.60;99.90;;;;;;5034222;28;19917;-76
2022/03/16 07:33:57;;;;;;;;;;;11.60;99.90;;;;;;5035682;28;20004;-76
2022/03/16 07:36:23;;;;;;;;;;;11.70;99.90;;;;;;5035729;28;19909;-76
2022/03/16 07:38:49;;;;;;;;;;;11.80;99.90;;;;;;5033965;28;19928;-76
2022/03/16 07:41:15;;;;;;;;;;;11.70;99.90;;;;;;5035357;28;19932;-76
2022/03/16 07:43:41;;;;;;;;;;;11.70;99.90;;;;;;5035507;28;19916;-76
2022/03/16 07:46:06;;;;;;;;;;;11.70;99.90;;;;;;5035515;28;19931;-77
2022/03/16 07:48:34;;;;;;;;;;;11.60;99.90;;;;;;5035056;28;19913;-76
2022/03/16 07:51:00;;;;;;;;;;;11.50;99.90;;;;;;5035175;28;20472;-76
2022/03/16 07:53:25;;;;;;;;;;;11.60;99.90;;;;;;5035086;28;19921;-76
2022/03/16 07:55:55;;;;;;;;;;;11.60;99.90;;;;;;5035242;28;19909;-76
2022/03/16 07:58:21;;;;;;;;;;;11.70;99.90;;;;;;5035206;28;19909;-76
2022/03/16 08:00:46;;;;;;;;;;;11.80;99.90;;;;;;5034970;28;20003;-76
2022/03/16 08:03:13;;;;;;;;;;;11.70;99.90;;;;;;5033639;28;19963;-76
2022/03/16 08:05:39;;;;;;;;;;;11.80;99.90;;;;;;5034897;28;19916;-76
2022/03/16 08:08:05;;;;;;;;;;;11.80;99.90;;;;;;5034781;28;19913;-76
2022/03/16 08:10:30;;;;;;;;;;;11.80;99.90;;;;;;5034787;28;19913;-76
2022/03/16 08:12:56;;;;;;;;;;;11.90;99.90;;;;;;5034948;28;19909;-76
2022/03/16 08:15:22;;;;;;;;;;;11.90;99.90;;;;;;5034654;28;20330;-76
2022/03/16 08:17:47;;;;;;;;;;;11.90;99.90;;;;;;5034690;28;20415;-76
2022/03/16 08:20:13;;;;;;;;;;;11.90;99.90;;;;;;5034609;28;19909;-76
2022/03/16 08:22:39;;;;;;;;;;;12.00;99.90;;;;;;5034627;28;20293;-76
2022/03/16 08:25:05;;;;;;;;;;;12.10;99.90;;;;;;5033164;28;19909;-76
2022/03/16 08:27:32;;;;;;;;;;;11.90;99.90;;;;;;5034419;28;20318;-76
2022/03/16 08:29:58;;;;;;;;;;;12.00;99.90;;;;;;5034471;28;19998;-76
2022/03/16 08:32:23;;;;;;;;;;;11.90;99.90;;;;;;5034506;28;19998;-76
2022/03/16 08:34:50;;;;;;;;;;;11.90;99.90;;;;;;5034650;28;19945;-76
2022/03/16 08:37:17;;;;;;;;;;;11.90;99.90;;;;;;5034366;28;20294;-76
2022/03/16 08:39:43;;;;;;;;;;;12.00;99.90;;;;;;5034054;28;19921;-76
2022/03/16 08:42:11;;;;;;;;;;;12.00;99.90;;;;;;5034204;28;19967;-76
2022/03/16 08:44:36;;;;;;;;;;;12.00;99.90;;;;;;5034176;28;20413;-76
2022/03/16 08:47:02;;;;;;;;;;;12.00;99.90;;;;;;5034094;28;19910;-76
2022/03/16 08:49:29;;;;;;;;;;;12.10;99.90;;;;;;5034226;28;19914;-76
2022/03/16 08:51:56;;;;;;;;;;;12.20;99.90;;;;;;5034142;28;19909;-76
2022/03/16 08:54:22;;;;;;;;;;;12.30;99.90;;;;;;5033973;28;19909;-76
2022/03/16 08:56:47;;;;;;;;;;;12.40;99.90;;;;;;5034434;28;19913;-76
2022/03/16 08:59:14;;;;;;;;;;;12.50;99.90;;;;;;5034277;28;19997;-76
2022/03/16 09:01:39;;;;;;;;;;;12.50;99.90;;;;;;5033961;28;19931;-76
2022/03/16 09:04:05;;;;;;;;;;;12.50;99.90;;;;;;5034043;28;20423;-76
2022/03/16 09:06:30;;;;;;;;;;;12.70;99.90;;;;;;5033832;28;19973;-76
2022/03/16 09:08:56;;;;;;;;;;;12.70;99.90;;;;;;5033737;28;19917;-76
2022/03/16 09:11:22;;;;;;;;;;;12.80;99.90;;;;;;5032440;28;20259;-76
2022/03/16 09:13:47;;;;;;;;;;;12.80;99.90;;;;;;5033426;28;19913;-76
2022/03/16 09:16:17;;;;;;;;;;;12.90;99.90;;;;;;5032406;28;19996;-76
2022/03/16 09:18:43;;;;;;;;;;;12.90;99.90;;;;;;5033865;28;19956;-76
2022/03/16 09:21:08;;;;;;;;;;;12.90;99.90;;;;;;5033676;28;19948;-76
2022/03/16 09:23:34;;;;;;;;;;;12.90;99.90;;;;;;5033816;28;19913;-76
2022/03/16 09:26:00;;;;;;;;;;;12.90;99.90;;;;;;5033695;28;20361;-76
2022/03/16 09:28:26;;;;;;;;;;;12.80;99.90;;;;;;5033819;28;19920;-76
2022/03/16 09:30:52;;;;;;;;;;;12.80;99.90;;;;;;5033619;28;19909;-76
2022/03/16 09:33:18;;;;;;;;;;;12.80;99.90;;;;;;5033622;28;20266;-76
2022/03/16 09:35:44;;;;;;;;;;;12.70;99.90;;;;;;5033665;28;19995;-76
2022/03/16 09:38:10;;;;;;;;;;;12.70;99.90;;;;;;5033318;28;19921;-76
2022/03/16 09:40:36;;;;;;;;;;;12.80;99.90;;;;;;5033575;28;19958;-76
2022/03/16 09:43:07;;;;;;;;;;;12.90;99.90;;;;;;5033637;28;19909;-76
2022/03/16 09:45:36;;;;;;;;;;;12.80;99.90;;;;;;5033614;28;19909;-76
2022/03/16 09:48:02;;;;;;;;;;;12.80;99.90;;;;;;5033350;28;19913;-76
2022/03/16 09:50:28;;;;;;;;;;;13.00;99.90;;;;;;5033455;28;20017;-76
2022/03/16 09:52:54;;;;;;;;;;;13.10;99.90;;;;;;5033431;28;19909;-77
2022/03/16 09:55:21;;;;;;;;;;;13.00;99.90;;;;;;5033324;28;19932;-76
2022/03/16 09:57:46;;;;;;;;;;;12.90;99.90;;;;;;5032082;28;19945;-76
2022/03/16 10:00:13;;;;;;;;;;;12.90;99.90;;;;;;5033319;28;19932;-76
2022/03/16 10:02:40;;;;;;;;;;;13.10;99.90;;;;;;5033307;28;19909;-76
2022/03/16 10:05:09;;;;;;;;;;;13.30;99.90;;;;;;5033075;28;19952;-76
2022/03/16 10:07:36;;;;;;;;;;;13.10;99.90;;;;;;5031912;28;20308;-76
2022/03/16 10:15:33;;;;;;;;;;;13.10;99.90;;;;;;5032960;28;19971;-76
2022/03/16 10:17:59;;;;;;;;;;;13.30;99.90;;;;;;5033219;28;19912;-77
2022/03/16 10:20:28;;;;;;;;;;;13.40;99.90;;;;;;5033153;28;20293;-77
2022/03/16 10:22:55;;;;;;;;;;;13.40;99.90;;;;;;5033137;28;20294;-77
2022/03/16 10:25:21;;;;;;;;;;;13.80;99.90;;;;;;5033517;28;19909;-76
2022/03/16 10:27:46;;;;;;;;;;;14.00;99.90;;;;;;5036688;28;20475;-76
2022/03/16 10:30:13;;;;;;;;;;;13.80;99.90;;;;;;5036673;28;19948;-76
2022/03/16 10:32:39;;;;;;;;;;;13.90;99.90;;;;;;5036642;28;19995;-77
2022/03/16 10:35:05;;;;;;;;;;;14.20;99.90;;;;;;5036893;28;20016;-76
2022/03/16 10:37:31;;;;;;;;;;;14.30;99.90;;;;;;5036326;28;19936;-76
2022/03/16 10:39:58;;;;;;;;;;;14.40;99.90;;;;;;5036730;28;19947;-77
2022/03/16 10:48:01;;;;;;;;;;;14.40;99.90;;;;;;5036313;28;20332;-76
2022/03/16 10:50:26;;;;;;;;;;;14.40;99.90;;;;;;5036362;28;19910;-76
2022/03/16 10:52:52;;;;;;;;;;;14.50;99.90;;;;;;5036285;28;20281;-77
2022/03/16 10:55:22;;;;;;;;;;;14.50;99.90;;;;;;5036440;28;19959;-76
2022/03/16 10:57:51;;;;;;;;;;;14.60;99.90;;;;;;5036341;28;20000;-76
2022/03/16 11:00:17;;;;;;;;;;;14.60;99.90;;;;;;5036167;28;19909;-76
2022/03/16 11:02:45;;;;;;;;;;;14.70;99.90;;;;;;5036129;28;19909;-76
2022/03/16 11:05:11;;;;;;;;;;;15.00;99.90;;;;;;5036427;28;20001;-76
2022/03/16 11:07:37;;;;;;;;;;;15.00;99.90;;;;;;5036218;28;20008;-76
2022/03/16 11:10:04;;;;;;;;;;;15.00;99.90;;;;;;5034714;28;19909;-76
2022/03/16 11:15:16;;;;;;;;;;;15.20;99.90;;;;;;5036085;28;20443;-76
2022/03/16 11:17:42;;;;;;;;;;;15.20;99.90;;;;;;5035878;28;19913;-76
2022/03/16 11:20:10;;;;;;;;;;;15.20;99.90;;;;;;5035786;28;20027;-77
2022/03/16 11:25:41;;;;;;;;;;;15.70;99.90;;;;;;5035821;28;20380;-76
2022/03/16 11:28:10;;;;;;;;;;;15.60;99.90;;;;;;5034083;28;19913;-76
2022/03/16 11:30:37;;;;;;;;;;;15.60;99.90;;;;;;5034385;28;19916;-77
2022/03/16 11:33:06;;;;;;;;;;;15.60;99.90;;;;;;5035581;28;20004;-76
2022/03/16 11:35:36;;;;;;;;;;;15.30;99.90;;;;;;5035529;28;19948;-76
2022/03/16 11:38:03;;;;;;;;;;;15.30;99.90;;;;;;5034975;28;19956;-76
2022/03/16 11:40:29;;;;;;;;;;;15.30;99.90;;;;;;5035555;28;20385;-76
2022/03/16 11:43:04;;;;;;;;;;;15.40;99.90;;;;;;5034096;28;19932;-76
2022/03/16 11:45:43;;;;;;;;;;;15.20;99.90;;;;;;5035434;28;20000;-77
2022/03/16 11:48:31;;;;;;;;;;;15.00;99.90;;;;;;5035720;28;19929;-76
2022/03/16 11:51:09;;;;;;;;;;;15.00;99.90;;;;;;5033910;28;20431;-77
2022/03/16 11:53:51;;;;;;;;;;;15.00;99.90;;;;;;5035256;28;19913;-77
2022/03/16 11:56:23;;;;;;;;;;;15.10;99.90;;;;;;5035629;28;19909;-76
2022/03/16 11:58:56;;;;;;;;;;;15.10;99.90;;;;;;5035039;28;19913;-77
2022/03/16 12:01:29;;;;;;;;;;;15.10;99.90;;;;;;5035076;28;19952;-76
2022/03/16 12:04:08;;;;;;;;;;;15.10;99.90;;;;;;5034947;28;20405;-76
2022/03/16 12:06:52;;;;;;;;;;;14.40;99.90;;;;;;5033383;28;19971;-76
2022/03/16 12:09:20;;;;;;;;;;;14.20;99.90;;;;;;5034752;28;20278;-76
2022/03/16 12:15:09;;;;;;;;;;;13.90;99.90;;;;;;5034429;28;19967;-77
2022/03/16 12:17:35;;;;;;;;;;;13.90;99.90;;;;;;5035082;28;20373;-77
2022/03/16 12:20:10;;;;;;;;;;;14.00;99.90;;;;;;5034951;28;20297;-76
2022/03/16 12:22:47;;;;;;;;;;;13.90;99.90;;;;;;5034758;28;19939;-76
2022/03/16 12:25:28;;;;;;;;;;;14.00;99.90;;;;;;5034633;28;19963;-76
2022/03/16 12:30:50;;;;;;;;;;;13.90;99.90;;;;;;5034620;28;19916;-76
2022/03/16 12:33:19;;;;;;;;;;;13.80;99.90;;;;;;5034358;28;19909;-76
2022/03/16 12:35:58;;;;;;;;;;;13.90;99.90;;;;;;5034579;28;19909;-76
2022/03/16 12:38:26;;;;;;;;;;;13.80;99.90;;;;;;5034264;28;20313;-76
2022/03/16 12:43:37;;;;;;;;;;;13.80;99.90;;;;;;5033981;28;19917;-76
2022/03/16 12:46:13;;;;;;;;;;;13.80;99.90;;;;;;5034334;28;19916;-76
2022/03/16 12:48:40;;;;;;;;;;;14.00;99.90;;;;;;5033407;28;20012;-76
2022/03/16 12:51:05;;;;;;;;;;;14.00;99.90;;;;;;5032814;28;20016;-76
2022/03/16 12:53:44;;;;;;;;;;;14.10;99.90;;;;;;5034033;28;19952;-76
2022/03/16 12:56:11;;;;;;;;;;;14.20;99.90;;;;;;5034193;28;19943;-77
2022/03/16 12:58:37;;;;;;;;;;;14.20;99.90;;;;;;5032743;28;19913;-76
2022/03/16 13:01:03;;;;;;;;;;;14.20;99.90;;;;;;5033924;28;19909;-76
2022/03/16 13:03:28;;;;;;;;;;;14.20;99.90;;;;;;5033942;28;19944;-76
2022/03/16 13:05:54;;;;;;;;;;;14.10;99.90;;;;;;5032570;28;20019;-77
2022/03/16 13:08:19;;;;;;;;;;;14.20;99.90;;;;;;5033841;28;19913;-76
2022/03/16 13:13:29;;;;;;;;;;;14.00;99.90;;;;;;5033844;28;19917;-76
2022/03/16 13:16:01;;;;;;;;;;;14.00;99.90;;;;;;5033799;28;19910;-77
2022/03/16 13:18:33;;;;;;;;;;;14.10;99.90;;;;;;5034107;28;19967;-76
2022/03/16 13:20:59;;;;;;;;;;;14.30;99.90;;;;;;5033806;28;20425;-76
2022/03/16 13:23:31;;;;;;;;;;;14.50;99.90;;;;;;5033696;28;19944;-76
2022/03/16 13:26:12;;;;;;;;;;;14.40;99.90;;;;;;5032395;28;20428;-76
2022/03/16 13:28:38;;;;;;;;;;;14.10;99.90;;;;;;5033569;28;19924;-76
2022/03/16 13:31:04;;;;;;;;;;;14.10;99.90;;;;;;5033811;28;19909;-76
2022/03/16 13:33:30;;;;;;;;;;;14.00;99.90;;;;;;5033677;28;20365;-76
2022/03/16 13:36:09;;;;;;;;;;;14.00;99.90;;;;;;5033527;28;20285;-76
2022/03/16 13:38:37;;;;;;;;;;;13.80;99.90;;;;;;5033332;28;19921;-76
2022/03/16 13:41:14;;;;;;;;;;;13.80;99.90;;;;;;5033356;28;20214;-77
2022/03/16 13:43:40;;;;;;;;;;;13.70;99.90;;;;;;5033463;28;20004;-76
2022/03/16 13:46:14;;;;;;;;;;;13.70;99.90;;;;;;5033792;28;19936;-76
2022/03/16 13:48:40;;;;;;;;;;;13.80;99.90;;;;;;5031860;28;20007;-76
2022/03/16 13:51:07;;;;;;;;;;;13.80;99.90;;;;;;5033502;28;19991;-76
2022/03/16 13:53:47;;;;;;;;;;;13.80;99.90;;;;;;5033376;28;20381;-76
2022/03/16 13:56:15;;;;;;;;;;;13.70;99.90;;;;;;5033884;28;19909;-76
2022/03/16 13:58:41;;;;;;;;;;;13.60;99.90;;;;;;5033338;28;19916;-76
2022/03/16 14:01:07;;;;;;;;;;;13.50;99.90;;;;;;5036753;28;20377;-77
2022/03/16 14:03:33;;;;;;;;;;;13.50;99.90;;;;;;5037280;28;19915;-76
2022/03/16 14:06:09;;;;;;;;;;;13.40;99.90;;;;;;5037229;28;19996;-76
2022/03/16 14:08:36;;;;;;;;;;;13.30;99.90;;;;;;5035523;28;19920;-76
2022/03/16 14:11:02;;;;;;;;;;;13.20;99.90;;;;;;5037231;28;19909;-76
2022/03/16 14:13:29;;;;;;;;;;;13.10;99.90;;;;;;5037155;28;20078;-76
2022/03/16 14:16:12;;;;;;;;;;;13.10;99.90;;;;;;5037053;28;19932;-76
2022/03/16 14:18:38;;;;;;;;;;;13.10;99.90;;;;;;5036909;28;19917;-76
2022/03/16 14:21:04;;;;;;;;;;;13.10;99.90;;;;;;5035614;28;19910;-76
2022/03/16 14:23:30;;;;;;;;;;;13.00;99.90;;;;;;5036892;28;19921;-76
2022/03/16 14:25:58;;;;;;;;;;;12.90;99.90;;;;;;5037249;28;19991;-76
2022/03/16 14:28:23;;;;;;;;;;;12.90;99.90;;;;;;5035378;28;20026;-76
2022/03/16 14:30:51;;;;;;;;;;;12.90;99.90;;;;;;5036905;28;20374;-76
2022/03/16 14:33:22;;;;;;;;;;;12.90;99.90;;;;;;5035391;28;19909;-76
2022/03/16 14:35:52;;;;;;;;;;;13.00;99.90;;;;;;5037004;28;20077;-76
2022/03/16 14:38:18;;;;;;;;;;;12.80;99.90;;;;;;5036345;28;19995;-76
2022/03/16 14:40:54;;;;;;;;;;;12.80;99.90;;;;;;5036625;28;19913;-76
2022/03/16 14:43:24;;;;;;;;;;;12.80;99.90;;;;;;5034912;28;20003;-76